Time;durP1;ratioP1;P1;durP2;ratioP2;P2;SDS_P1;SDS_P2;PMS_P1;PMS_P2;Temp;Humidity;BMP_temperature;BMP_pressure;BME280_temperature;BME280_humidity;BME280_pressure;Samples;Min_cycle;Max_cycle;Signal;HPM_P1;HPM_P2
2022/08/06 06:49:59;;;;;;;;;0.67;0.67;;;;;20.04;65.20;102110.34;5237677;22;45298;-89
2022/08/06 06:52:28;;;;;;;;;0.00;0.00;;;;;20.03;64.56;102116.53;4993733;28;45567;-91
2022/08/06 06:55:04;;;;;;;;;3.33;1.00;;;;;20.09;64.55;102111.38;4980848;28;45247;-93
2022/08/06 06:57:34;;;;;;;;;0.67;0.67;;;;;20.12;64.97;102107.94;4973315;28;45631;-90
2022/08/06 07:00:04;;;;;;;;;3.00;1.00;;;;;20.19;64.66;102117.91;4976911;28;46266;-90
2022/08/06 07:02:34;;;;;;;;;0.00;0.00;;;;;20.24;64.42;102129.59;4979271;28;45428;-90
2022/08/06 07:05:03;;;;;;;;;1.00;0.00;;;;;20.32;64.45;102132.47;4981299;28;45439;-90
2022/08/06 07:07:32;;;;;;;;;1.00;1.00;;;;;20.39;63.83;102149.53;4991701;28;45422;-91
2022/08/06 07:10:00;;;;;;;;;0.00;0.00;;;;;20.45;63.76;102163.03;4970035;28;46519;-89
2022/08/06 07:12:28;;;;;;;;;1.00;1.00;;;;;20.47;63.62;102161.31;4973719;28;45744;-92
2022/08/06 07:14:55;;;;;;;;;0.00;0.00;;;;;20.52;63.27;102175.66;4989122;28;45384;-94
2022/08/06 07:17:23;;;;;;;;;1.00;1.00;;;;;20.58;63.30;102195.38;5002236;28;45377;-93
2022/08/06 07:19:51;;;;;;;;;1.00;1.00;;;;;20.62;63.27;102190.16;4996033;28;46958;-92
2022/08/06 07:22:20;;;;;;;;;1.00;0.33;;;;;20.72;62.73;102204.63;4999590;28;45407;-89
2022/08/06 07:24:46;;;;;;;;;2.00;0.33;;;;;20.76;62.51;102218.97;4988517;28;45628;-91
2022/08/06 07:27:12;;;;;;;;;1.00;0.00;;;;;20.85;62.35;102223.63;4979867;28;45738;-92
2022/08/06 07:29:40;;;;;;;;;1.67;0.00;;;;;20.91;61.96;102231.81;4979148;28;47519;-87
2022/08/06 07:32:07;;;;;;;;;0.00;0.00;;;;;20.95;62.25;102227.47;4974694;28;46227;-86
2022/08/06 07:34:33;;;;;;;;;0.67;0.67;;;;;21.01;62.23;102227.63;4977445;28;45358;-88
2022/08/06 07:36:59;;;;;;;;;0.33;0.33;;;;;21.08;62.61;102226.91;4987618;28;45317;-94
2022/08/06 07:39:28;;;;;;;;;0.00;0.00;;;;;21.13;61.88;102236.81;4977529;28;47338;-90
2022/08/06 07:41:55;;;;;;;;;0.67;0.33;;;;;21.25;61.27;102245.13;4974891;28;45553;-91
2022/08/06 07:44:22;;;;;;;;;0.67;0.67;;;;;21.31;61.38;102247.06;4976514;28;45552;-95
2022/08/06 07:46:54;;;;;;;;;0.00;0.00;;;;;21.40;60.77;102262.38;4972169;28;45280;-94
2022/08/06 07:49:23;;;;;;;;;0.00;0.00;;;;;21.46;60.27;102270.56;4974029;28;46181;-94
2022/08/06 07:51:50;;;;;;;;;1.00;1.00;;;;;21.51;60.23;102276.00;4982265;28;45237;-96
2022/08/06 07:54:18;;;;;;;;;0.00;0.00;;;;;21.53;60.19;102263.59;4987454;28;45422;-96
2022/08/06 07:56:44;;;;;;;;;1.00;0.00;;;;;21.58;59.63;102275.28;4986308;28;45445;-95
2022/08/06 07:59:10;;;;;;;;;0.00;0.00;;;;;21.66;59.67;102276.38;4981189;28;48341;-96
2022/08/06 08:01:37;;;;;;;;;0.67;0.33;;;;;21.74;59.62;102273.88;4963909;28;45649;-95
2022/08/06 08:06:51;;;;;;;;;0.00;0.00;;;;;21.85;59.13;102291.94;4983972;28;45642;-95
2022/08/06 08:09:21;;;;;;;;;0.00;0.00;;;;;21.92;59.56;102298.34;4965964;28;47633;-94
2022/08/06 08:11:48;;;;;;;;;0.00;0.00;;;;;21.99;59.16;102297.63;4981803;28;45512;-94
2022/08/06 08:14:18;;;;;;;;;1.00;1.00;;;;;22.04;59.23;102297.72;4983267;28;45490;-94
2022/08/06 08:16:44;;;;;;;;;0.00;0.00;;;;;22.14;58.87;102305.06;4986250;28;45476;-96
2022/08/06 08:19:33;;;;;;;;;0.00;0.00;;;;;22.23;58.12;102312.41;4985580;28;46579;-96
2022/08/06 08:22:02;;;;;;;;;0.00;0.00;;;;;22.32;58.34;102309.00;4988434;28;45335;-96
2022/08/06 08:24:31;;;;;;;;;0.00;0.00;;;;;22.40;58.87;102309.16;4994467;28;45282;-96
2022/08/06 08:26:56;;;;;;;;;0.00;0.00;;;;;22.47;58.55;102311.09;4990929;28;45282;-96
2022/08/06 08:29:22;;;;;;;;;0.00;0.00;;;;;22.56;57.69;102323.78;5008608;28;50198;-95
2022/08/06 08:31:47;;;;;;;;;0.00;0.00;;;;;22.62;57.61;102323.91;5000350;28;53727;-96
2022/08/06 08:34:13;;;;;;;;;0.33;0.33;;;;;22.65;57.65;102313.25;4990870;28;45235;-96
2022/08/06 08:36:39;;;;;;;;;0.00;0.00;;;;;22.71;57.22;102316.94;4993320;28;45401;-94
2022/08/06 08:39:06;;;;;;;;;1.00;1.00;;;;;22.74;57.19;102312.56;4998080;28;47074;-96
2022/08/06 08:41:35;;;;;;;;;0.33;0.00;;;;;22.82;57.45;102319.84;4984771;28;45503;-95
2022/08/06 08:44:03;;;;;;;;;0.00;0.00;;;;;22.90;57.17;102314.63;4989323;28;45264;-96
2022/08/06 08:46:32;;;;;;;;;1.00;1.00;;;;;22.96;56.50;102312.97;4998962;28;45327;-96
2022/08/06 08:49:02;;;;;;;;;0.00;0.00;;;;;23.02;56.97;102316.63;4994446;28;45082;-96
2022/08/06 08:51:28;;;;;;;;;0.00;0.00;;;;;23.12;57.10;102313.25;4989055;28;45288;-96
2022/08/06 08:53:59;;;;;;;;;0.33;0.33;;;;;23.19;56.71;102314.28;4983003;28;45306;-96
2022/08/06 08:56:26;;;;;;;;;0.00;0.00;;;;;23.26;56.45;102312.59;4985098;28;45238;-96
2022/08/06 08:58:51;;;;;;;;;2.00;1.00;;;;;23.35;56.57;102315.41;4987452;28;46394;-95
2022/08/06 09:01:17;;;;;;;;;0.67;0.67;;;;;23.42;56.25;102317.34;4985235;28;45585;-95
2022/08/06 09:03:43;;;;;;;;;0.33;0.33;;;;;23.49;56.30;102314.75;4990409;28;45239;-96
2022/08/06 09:06:08;;;;;;;;;0.00;0.00;;;;;23.55;55.89;102317.56;4990419;28;45271;-94
2022/08/06 09:08:36;;;;;;;;;0.33;0.33;;;;;23.63;55.63;102323.06;4990530;28;45385;-96
2022/08/06 09:11:02;;;;;;;;;1.00;1.00;;;;;23.69;55.78;102330.25;5006030;28;44792;-95
2022/08/06 09:13:27;;;;;;;;;0.00;0.00;;;;;23.75;56.19;102328.59;5004455;28;45420;-96
2022/08/06 09:15:54;;;;;;;;;0.00;0.00;;;;;23.81;55.77;102327.75;4989355;28;45311;-95
2022/08/06 09:18:20;;;;;;;;;0.00;0.00;;;;;23.87;55.57;102327.88;4989419;28;47573;-96
2022/08/06 09:20:46;;;;;;;;;1.00;1.00;;;;;23.95;55.58;102324.41;4988230;28;46053;-93
2022/08/06 09:23:12;;;;;;;;;0.33;0.33;;;;;24.03;55.37;102329.88;4986571;28;45616;-95
2022/08/06 09:25:41;;;;;;;;;0.00;0.00;;;;;24.10;55.13;102342.47;4981786;28;45604;-96
2022/08/06 09:28:41;;;;;;;;;0.00;0.00;;;;;24.17;54.99;102335.44;4981190;28;45622;-96
2022/08/06 09:31:13;;;;;;;;;0.00;0.00;;;;;24.22;54.68;102337.28;4976581;28;45420;-95
2022/08/06 09:33:42;;;;;;;;;0.00;0.00;;;;;24.26;54.93;102340.94;4980357;28;45373;-94
2022/08/06 09:36:12;;;;;;;;;0.00;0.00;;;;;24.30;54.91;102339.22;4981093;28;45206;-95
2022/08/06 09:38:45;;;;;;;;;0.00;0.00;;;;;24.35;55.01;102339.28;4970765;28;47111;-96
2022/08/06 09:41:11;;;;;;;;;0.00;0.00;;;;;24.41;55.39;102325.91;4976293;28;45455;-96
2022/08/06 09:43:38;;;;;;;;;1.00;0.00;;;;;24.53;55.03;102330.56;4962441;28;45342;-96
2022/08/06 09:46:04;;;;;;;;;0.00;0.00;;;;;24.62;55.45;102330.66;4967341;28;45375;-96
2022/08/06 09:48:30;;;;;;;;;0.00;0.00;;;;;24.76;54.82;102328.16;4961666;28;46511;-95
2022/08/06 09:50:56;;;;;;;;;0.00;0.00;;;;;24.88;54.69;102324.69;4962326;28;45366;-95
2022/08/06 09:53:22;;;;;;;;;0.00;0.00;;;;;25.09;54.46;102330.28;4976292;28;45464;-95
2022/08/06 09:55:49;;;;;;;;;0.00;0.00;;;;;25.37;53.78;102343.03;4961576;28;45613;-96
2022/08/06 09:58:35;;;;;;;;;1.00;1.00;;;;;25.69;53.71;102333.44;4959406;28;47452;-96
2022/08/06 10:01:23;;;;;;;;;0.00;0.00;;;;;25.94;53.50;102329.16;4960139;28;45363;-95
2022/08/06 10:03:53;;;;;;;;;0.00;0.00;;;;;26.14;53.27;102327.44;4976390;28;45445;-96
2022/08/06 10:06:20;;;;;;;;;1.67;1.67;;;;;26.41;53.60;102329.38;4960458;28;45711;-94
2022/08/06 10:08:47;;;;;;;;;0.00;0.00;;;;;27.12;52.50;102329.56;4959100;28;46514;-95
2022/08/06 10:11:13;;;;;;;;;0.00;0.00;;;;;28.38;53.47;102324.84;4960193;28;45394;-95
2022/08/06 10:13:45;;;;;;;;;0.00;0.00;;;;;29.77;52.94;102325.69;4960374;28;45433;-96
2022/08/06 10:16:19;;;;;;;;;0.00;0.00;;;;;31.23;48.66;102328.25;4961918;28;45485;-96
2022/08/06 10:18:47;;;;;;;;;0.00;0.00;;;;;32.60;48.95;102325.59;4960754;28;45414;-96
2022/08/06 10:21:16;;;;;;;;;0.00;0.00;;;;;33.92;48.46;102328.59;4960342;28;45287;-95
2022/08/06 10:23:45;;;;;;;;;0.00;0.00;;;;;34.85;46.81;102325.84;4960671;28;45365;-96
2022/08/06 10:26:12;;;;;;;;;0.00;0.00;;;;;35.32;46.27;102332.44;4961094;28;45418;-96
2022/08/06 10:28:41;;;;;;;;;10.00;9.00;;;;;35.52;46.03;102331.75;4960893;28;46804;-96
2022/08/06 10:31:09;;;;;;;;;0.00;0.00;;;;;35.70;44.79;102326.56;4965587;28;45263;-96
2022/08/06 10:33:48;;;;;;;;;0.00;0.00;;;;;36.02;43.94;102323.59;4998362;28;45391;-94
2022/08/06 10:36:15;;;;;;;;;0.00;0.00;;;;;36.52;43.95;102331.72;4979376;28;45495;-95
2022/08/06 10:38:47;;;;;;;;;0.00;0.00;;;;;37.27;43.92;102317.66;4965186;28;47297;-95
2022/08/06 10:41:15;;;;;;;;;0.00;0.00;;;;;37.99;42.99;102324.53;4988654;28;45330;-95
2022/08/06 10:43:41;;;;;;;;;1.33;0.00;;;;;38.59;42.28;102318.97;5006043;28;45333;-96
2022/08/06 10:46:10;;;;;;;;;0.00;0.00;;;;;39.17;41.49;102319.72;4986317;28;45358;-95
2022/08/06 10:48:38;;;;;;;;;0.67;0.67;;;;;40.09;41.85;102333.16;4985930;28;47135;-94
2022/08/06 10:51:05;;;;;;;;;0.00;0.00;;;;;41.33;38.93;102314.09;4987889;28;45348;-96
2022/08/06 10:53:33;;;;;;;;;0.00;0.00;;;;;42.61;37.31;102320.66;4986447;28;45183;-96
2022/08/06 10:56:07;;;;;;;;;0.00;0.00;;;;;43.96;37.18;102312.22;5019922;28;45658;-95
2022/08/06 10:58:34;;;;;;;;;0.00;0.00;;;;;45.29;36.90;102305.88;4985651;28;47076;-94
2022/08/06 11:01:02;;;;;;;;;0.00;0.00;;;;;46.55;35.78;102313.19;4983167;28;45442;-95
2022/08/06 11:03:37;;;;;;;;;0.00;0.00;;;;;47.77;34.92;102312.84;5011369;28;45419;-93
2022/08/06 11:06:12;;;;;;;;;1.00;0.00;;;;;48.82;33.02;102316.16;4977830;28;45454;-93
2022/08/06 11:08:55;;;;;;;;;0.67;0.00;;;;;49.75;32.49;102317.38;4973685;28;52545;-95
2022/08/06 11:11:40;;;;;;;;;0.67;0.67;;;;;50.59;30.92;102314.63;4974662;28;46326;-95
2022/08/06 11:14:07;;;;;;;;;2.00;2.00;;;;;51.33;31.31;102310.63;4958928;28;45408;-96
2022/08/06 11:16:33;;;;;;;;;1.00;1.00;;;;;52.00;29.54;102308.09;4961455;28;45402;-95
2022/08/06 11:19:07;;;;;;;;;0.00;0.00;;;;;52.65;28.37;102301.88;4960345;28;46323;-95
2022/08/06 11:21:41;;;;;;;;;0.00;0.00;;;;;53.32;28.67;102307.38;4958969;28;45418;-92
2022/08/06 11:24:07;;;;;;;;;2.00;2.00;;;;;53.95;27.73;102294.44;4961399;28;45488;-95
2022/08/06 11:26:37;;;;;;;;;1.33;0.00;;;;;54.49;27.23;102298.22;4978430;28;45365;-95
2022/08/06 11:29:04;;;;;;;;;0.67;0.67;;;;;54.92;27.31;102285.56;4985307;28;47446;-95
2022/08/06 11:31:47;;;;;;;;;0.00;0.00;;;;;55.39;25.95;102282.50;4988268;28;45494;-92
2022/08/06 11:34:15;;;;;;;;;1.00;0.00;;;;;55.69;26.00;102286.34;4997926;28;45476;-93
2022/08/06 11:37:01;;;;;;;;;0.00;0.00;;;;;56.07;25.99;102288.06;5001780;28;44774;-93
2022/08/06 11:39:27;;;;;;;;;0.00;0.00;;;;;56.51;25.69;102282.38;5004617;28;46996;-95
2022/08/06 11:41:59;;;;;;;;;1.00;0.00;;;;;56.99;24.45;102288.34;5007670;28;45274;-94
2022/08/06 11:44:34;;;;;;;;;0.67;0.00;;;;;57.34;24.64;102279.00;5007134;28;44790;-92
2022/08/06 11:47:12;;;;;;;;;0.67;0.67;;;;;57.70;24.55;102289.13;5005160;28;44802;-94
2022/08/06 11:49:43;;;;;;;;;1.00;1.00;;;;;58.03;23.38;102281.81;5006050;28;45051;-94
2022/08/06 11:52:37;;;;;;;;;1.00;1.00;;;;;58.48;23.39;102268.13;5007155;28;44734;-93
2022/08/06 11:55:06;;;;;;;;;2.00;2.00;;;;;58.80;22.84;102270.22;5004516;28;45255;-93
2022/08/06 11:57:32;;;;;;;;;0.00;0.00;;;;;59.13;22.50;102279.72;5004665;28;45432;-93
2022/08/06 11:59:57;;;;;;;;;1.00;1.00;;;;;59.31;22.16;102272.47;5005079;28;45513;-94
2022/08/06 12:02:49;;;;;;;;;3.00;1.00;;;;;59.49;23.09;102254.75;5005862;28;44771;-93
2022/08/06 12:05:20;;;;;;;;;0.67;0.00;;;;;59.86;22.01;102270.19;4948276;28;44750;-95
2022/08/06 12:08:11;;;;;;;;;0.00;0.00;;;;;60.02;21.80;102261.13;4935919;28;45225;-92
2022/08/06 12:10:37;;;;;;;;;0.00;0.00;;;;;59.94;21.10;102267.09;4923901;28;48115;-94
2022/08/06 12:13:02;;;;;;;;;1.67;1.67;;;;;59.88;20.55;102263.19;4923647;28;45877;-94
2022/08/06 12:15:30;;;;;;;;;2.00;0.33;;;;;59.87;20.76;102271.94;4939616;28;49873;-95
2022/08/06 12:18:00;;;;;;;;;1.00;1.00;;;;;60.07;20.97;102260.47;4940127;28;45464;-95
2022/08/06 12:20:37;;;;;;;;;0.67;0.67;;;;;60.32;21.38;102259.56;4944922;28;45532;-94
2022/08/06 12:23:14;;;;;;;;;0.67;0.67;;;;;60.43;19.51;102257.97;4938498;28;45209;-92
2022/08/06 12:25:41;;;;;;;;;1.00;1.00;;;;;60.29;19.36;102254.34;4954087;28;45038;-93
2022/08/06 12:28:08;;;;;;;;;0.00;0.00;;;;;60.36;20.14;102262.84;4936603;28;44864;-94
2022/08/06 12:30:44;;;;;;;;;3.00;1.33;;;;;60.61;20.50;102246.84;4949682;28;47070;-94
2022/08/06 12:33:09;;;;;;;;;3.00;1.00;;;;;60.83;19.06;102240.75;4936344;28;44691;-93
2022/08/06 12:35:36;;;;;;;;;0.00;0.00;;;;;61.09;20.22;102255.69;4930836;28;45327;-94
2022/08/06 12:38:02;;;;;;;;;0.00;0.00;;;;;61.40;20.28;102255.69;4914052;28;45355;-94
2022/08/06 12:40:27;;;;;;;;;0.00;0.00;;;;;61.74;19.70;102247.56;4913208;28;46407;-96
2022/08/06 12:42:55;;;;;;;;;0.67;0.67;;;;;62.14;19.94;102245.97;4951911;28;45619;-93
2022/08/06 12:45:22;;;;;;;;;0.33;0.33;;;;;62.51;20.21;102240.31;4964348;28;45467;-94
2022/08/06 12:48:07;;;;;;;;;0.67;0.67;;;;;62.94;18.93;102242.94;4960298;28;45490;-95
2022/08/06 12:50:36;;;;;;;;;0.00;0.00;;;;;63.33;19.97;102237.47;4960308;28;45657;-94
2022/08/06 12:53:02;;;;;;;;;0.00;0.00;;;;;63.67;19.07;102250.91;4959900;28;45747;-94
2022/08/06 12:55:29;;;;;;;;;0.67;0.67;;;;;63.86;19.24;102241.22;4959228;28;45374;-94
2022/08/06 12:57:57;;;;;;;;;0.00;0.00;;;;;63.99;19.66;102240.91;4957994;28;45239;-94
2022/08/06 13:00:23;;;;;;;;;0.67;0.00;;;;;64.20;19.33;102231.81;4958260;28;47375;-93
2022/08/06 13:02:51;;;;;;;;;0.00;0.00;;;;;64.54;18.23;102228.03;4959609;28;45346;-93
2022/08/06 13:05:17;;;;;;;;;0.00;0.00;;;;;64.91;18.83;102242.69;4958398;28;45602;-94
2022/08/06 13:07:43;;;;;;;;;0.00;0.00;;;;;65.24;18.52;102237.09;4959641;28;45623;-95
2022/08/06 13:10:10;;;;;;;;;0.00;0.00;;;;;65.57;17.94;102243.69;4974885;28;48363;-94
2022/08/06 13:12:36;;;;;;;;;0.67;0.67;;;;;65.97;17.59;102240.56;4974749;28;45409;-94
2022/08/06 13:15:11;;;;;;;;;1.00;0.00;;;;;66.27;18.12;102219.03;4974407;28;45451;-93
2022/08/06 13:17:37;;;;;;;;;0.00;0.00;;;;;66.58;17.90;102211.75;4962950;28;45489;-94
2022/08/06 13:20:02;;;;;;;;;0.00;0.00;;;;;66.90;17.12;102227.88;4979914;28;48101;-95
2022/08/06 13:22:28;;;;;;;;;2.00;0.00;;;;;67.26;17.60;102217.63;4982205;28;46149;-95
2022/08/06 13:25:11;;;;;;;;;0.00;0.00;;;;;67.67;17.96;102216.78;4973331;28;45282;-95
2022/08/06 13:27:36;;;;;;;;;0.00;0.00;;;;;68.10;17.49;102198.34;4977319;28;45684;-93
2022/08/06 13:30:07;;;;;;;;;0.25;0.25;;;;;68.59;17.23;102200.72;4976898;28;48036;-93
2022/08/06 13:32:34;;;;;;;;;0.00;0.00;;;;;69.09;17.18;102219.91;4978220;28;45460;-91
2022/08/06 13:35:10;;;;;;;;;0.00;0.00;;;;;69.45;17.12;102204.41;4977964;28;45430;-94
2022/08/06 13:37:50;;;;;;;;;0.00;0.00;;;;;69.74;16.98;102206.44;4977396;28;45264;-94
2022/08/06 13:40:18;;;;;;;;;0.00;0.00;;;;;69.94;16.81;102178.59;5085717;22;47195;-94
2022/08/06 13:42:55;;;;;;;;;0.50;0.50;;;;;70.24;15.78;102178.50;4997379;28;45427;-95
2022/08/06 13:45:26;;;;;;;;;0.25;0.25;;;;;70.33;16.97;102195.94;5002062;28;45482;-94
2022/08/06 13:48:13;;;;;;;;;0.25;0.25;;;;;70.12;16.33;102184.69;4988415;28;45359;-94
2022/08/06 13:50:41;;;;;;;;;0.00;0.00;;;;;70.01;16.23;102183.97;5002387;28;45431;-93
2022/08/06 13:55:43;;;;;;;;;0.00;0.00;;;;;70.46;16.32;102202.06;5007121;22;45575;-94
2022/08/06 13:58:09;;;;;;;;;0.00;0.00;;;;;70.73;16.19;102177.50;5003405;28;45243;-93
2022/08/06 14:00:36;;;;;;;;;0.00;0.00;;;;;71.17;16.18;102177.38;4987761;28;45619;-93
2022/08/06 14:03:03;;;;;;;;;0.75;0.75;;;;;71.73;16.12;102173.75;5004748;28;45485;-94
2022/08/06 14:05:29;;;;;;;;;0.00;0.00;;;;;72.27;15.69;102176.03;4990396;28;45389;-93
2022/08/06 14:07:54;;;;;;;;;0.00;0.00;;;;;72.44;16.14;102173.66;5007062;28;45394;-93
2022/08/06 14:10:19;;;;;;;;;2.00;0.50;;;;;72.41;15.58;102180.06;4991494;28;47173;-95
2022/08/06 14:13:15;;;;;;;;;0.00;0.00;;;;;71.94;15.54;102165.50;5004181;28;45438;-94
2022/08/06 14:15:34;;;;;;;;;0.50;0.50;;;;;71.24;15.75;102157.69;5008594;28;45405;-95
2022/08/06 14:17:59;;;;;;;;;1.00;1.00;;;;;70.61;15.83;102170.22;4987961;28;45308;-94
2022/08/06 14:20:25;;;;;;;;;2.00;0.75;;;;;69.91;15.64;102156.22;5005758;28;46734;-93
2022/08/06 14:22:54;;;;;;;;;1.00;1.00;;;;;69.24;15.52;102146.31;4985344;28;45478;-95
2022/08/06 14:25:19;;;;;;;;;1.25;1.25;;;;;68.41;15.42;102140.03;4986792;28;45416;-94
2022/08/06 14:27:45;;;;;;;;;2.25;1.00;;;;;67.74;16.23;102131.41;5017615;28;45345;-94
2022/08/06 14:30:14;;;;;;;;;1.00;1.00;;;;;67.30;15.72;102124.34;5018247;28;48063;-95
2022/08/06 14:32:41;;;;;;;;;0.00;0.00;;;;;66.91;16.19;102137.19;4991650;28;45888;-94
2022/08/06 14:35:07;;;;;;;;;0.25;0.25;;;;;66.56;15.70;102129.09;4983300;28;45466;-94
2022/08/06 14:37:33;;;;;;;;;0.75;0.75;;;;;66.21;16.72;102115.28;4984289;28;45223;-95
2022/08/06 14:39:58;;;;;;;;;0.00;0.00;;;;;65.91;16.46;102104.59;4985352;28;45316;-92
2022/08/06 14:45:07;;;;;;;;;1.00;1.00;;;;;65.44;16.28;102117.38;4999551;28;44687;-95
2022/08/06 14:47:33;;;;;;;;;0.00;0.00;;;;;64.54;17.33;102111.13;4997843;28;45323;-95
2022/08/06 14:49:59;;;;;;;;;1.00;1.00;;;;;62.32;16.89;102101.22;4997078;28;59097;-93
2022/08/06 14:52:24;;;;;;;;;0.00;0.00;;;;;59.50;17.98;102102.81;4997192;28;45979;-95
2022/08/06 14:54:49;;;;;;;;;1.00;1.00;;;;;56.57;18.09;102094.72;4996528;28;45519;-93
2022/08/06 14:57:15;;;;;;;;;4.00;1.00;;;;;53.76;19.31;102104.97;4997278;28;45361;-95
2022/08/06 14:59:41;;;;;;;;;0.33;0.33;;;;;51.18;20.00;102095.13;4980426;28;48582;-95
2022/08/06 15:02:07;;;;;;;;;2.67;1.67;;;;;49.03;21.21;102098.69;4997081;28;45470;-95
2022/08/06 15:04:32;;;;;;;;;0.00;0.00;;;;;47.18;22.11;102097.56;4979657;28;45480;-94
2022/08/06 15:06:58;;;;;;;;;1.67;0.33;;;;;45.58;23.03;102103.09;4992459;28;45671;-94
2022/08/06 15:09:23;;;;;;;;;1.00;1.00;;;;;44.12;23.91;102095.34;4960249;28;47032;-95
2022/08/06 15:11:49;;;;;;;;;1.00;1.00;;;;;42.79;24.65;102094.97;4960282;28;45363;-94
2022/08/06 15:14:17;;;;;;;;;2.00;2.00;;;;;41.62;25.13;102092.84;4984108;28;45427;-94
2022/08/06 15:16:42;;;;;;;;;2.00;0.33;;;;;40.59;25.86;102091.97;4972142;28;45817;-94
2022/08/06 15:19:08;;;;;;;;;1.00;0.00;;;;;39.70;26.66;102084.38;4968365;28;46020;-94
2022/08/06 15:21:33;;;;;;;;;0.00;0.00;;;;;38.85;26.89;102086.34;4985399;28;58381;-95
2022/08/06 15:23:59;;;;;;;;;1.67;1.33;;;;;38.10;27.14;102093.81;4988428;28;45339;-94
2022/08/06 15:26:26;;;;;;;;;0.00;0.00;;;;;37.42;27.95;102093.50;5023669;28;45487;-95
2022/08/06 15:28:52;;;;;;;;;0.00;0.00;;;;;36.73;28.38;102089.28;5015991;28;45411;-94
2022/08/06 15:31:18;;;;;;;;;0.00;0.00;;;;;36.13;28.59;102088.22;4999407;28;45732;-94
2022/08/06 15:33:44;;;;;;;;;0.00;0.00;;;;;35.55;29.16;102077.78;5020032;28;45566;-93
2022/08/06 15:36:09;;;;;;;;;0.00;0.00;;;;;35.06;29.44;102077.81;5009937;28;45583;-95
2022/08/06 15:38:34;;;;;;;;;0.00;0.00;;;;;34.58;29.88;102083.19;4992441;28;46868;-93
2022/08/06 15:41:00;;;;;;;;;0.67;0.00;;;;;34.14;30.58;102069.22;4987558;28;45799;-95
2022/08/06 15:43:27;;;;;;;;;0.00;0.00;;;;;33.77;30.50;102082.22;5014098;28;44727;-95
2022/08/06 15:45:53;;;;;;;;;0.67;0.00;;;;;33.42;31.55;102087.81;4992830;28;45255;-93
2022/08/06 15:48:24;;;;;;;;;0.00;0.00;;;;;33.05;31.36;102070.72;5006494;28;45566;-95
2022/08/06 15:50:51;;;;;;;;;0.00;0.00;;;;;32.73;31.63;102062.59;5010089;28;45263;-94
2022/08/06 15:53:17;;;;;;;;;1.00;1.00;;;;;32.41;32.04;102067.94;5003164;28;45310;-94
2022/08/06 15:55:42;;;;;;;;;0.00;0.00;;;;;32.11;32.60;102066.84;5016514;28;45370;-94
2022/08/06 15:58:07;;;;;;;;;0.00;0.00;;;;;31.87;32.20;102061.09;5060255;22;45131;-94
2022/08/06 16:00:36;;;;;;;;;0.00;0.00;;;;;31.66;33.17;102066.09;4989566;28;45995;-93
2022/08/06 16:03:06;;;;;;;;;0.00;0.00;;;;;31.43;33.51;102059.34;4990773;28;45414;-95
2022/08/06 16:05:31;;;;;;;;;0.00;0.00;;;;;31.23;33.29;102066.09;4990525;28;45689;-96
2022/08/06 16:07:56;;;;;;;;;0.00;0.00;;;;;31.04;33.92;102067.41;4989098;28;68829;-92
2022/08/06 16:10:22;;;;;;;;;0.00;0.00;;;;;30.87;34.24;102065.91;4986926;28;45318;-95
2022/08/06 16:12:48;;;;;;;;;0.33;0.00;;;;;30.71;33.96;102063.50;4982607;28;45338;-94
2022/08/06 16:15:13;;;;;;;;;0.00;0.00;;;;;30.58;34.23;102068.25;4979827;28;45478;-93
2022/08/06 16:17:38;;;;;;;;;1.00;0.00;;;;;30.44;34.33;102069.41;4979866;28;61832;-94
2022/08/06 16:20:05;;;;;;;;;1.33;0.00;;;;;30.30;34.70;102071.44;4980100;28;45339;-95
2022/08/06 16:22:30;;;;;;;;;0.00;0.00;;;;;30.11;34.64;102058.19;4978337;28;45437;-95
2022/08/06 16:24:56;;;;;;;;;1.67;1.67;;;;;29.99;34.82;102052.09;4988962;28;45319;-94
2022/08/06 16:27:21;;;;;;;;;0.67;0.67;;;;;29.89;35.12;102056.72;4985228;28;55177;-94
2022/08/06 16:29:48;;;;;;;;;0.67;0.67;;;;;29.78;35.11;102056.91;5002902;28;45480;-93
2022/08/06 16:32:13;;;;;;;;;0.00;0.00;;;;;29.69;35.43;102058.84;5000563;28;45295;-96
2022/08/06 16:34:42;;;;;;;;;0.00;0.00;;;;;29.59;35.27;102063.47;4982447;28;45311;-94
2022/08/06 16:37:08;;;;;;;;;0.00;0.00;;;;;29.47;35.77;102060.03;4981813;28;47363;-94
2022/08/06 16:39:34;;;;;;;;;1.00;1.00;;;;;29.33;35.84;102060.19;4983620;28;46095;-95
2022/08/06 16:42:00;;;;;;;;;0.67;0.67;;;;;29.24;35.90;102069.34;4982982;28;45437;-94
2022/08/06 16:44:27;;;;;;;;;0.00;0.00;;;;;29.11;36.04;102055.09;4982298;28;45469;-94
2022/08/06 16:46:52;;;;;;;;;1.00;0.67;;;;;29.00;36.23;102058.78;5000739;28;45529;-95
2022/08/06 16:49:18;;;;;;;;;2.00;2.00;;;;;28.92;36.20;102060.66;4985572;28;45390;-95
2022/08/06 16:51:43;;;;;;;;;1.67;1.67;;;;;28.82;36.95;102049.06;4983936;28;45387;-94
2022/08/06 16:54:08;;;;;;;;;2.67;2.67;;;;;28.76;36.87;102057.25;4985032;28;45865;-94
2022/08/06 16:56:35;;;;;;;;;2.00;2.00;;;;;28.67;37.25;102053.75;4992757;28;47051;-92
2022/08/06 16:59:01;;;;;;;;;2.00;2.00;;;;;28.58;37.11;102051.13;4995578;28;45333;-94
2022/08/06 17:01:26;;;;;;;;;1.00;1.00;;;;;28.48;37.63;102053.00;4982775;28;45442;-95
2022/08/06 17:03:52;;;;;;;;;4.00;2.33;;;;;28.41;37.98;102049.47;4999219;28;45535;-93
2022/08/06 17:06:17;;;;;;;;;2.33;2.33;;;;;28.34;37.91;102045.94;4998859;28;46910;-95
2022/08/06 17:08:43;;;;;;;;;3.33;3.33;;;;;28.27;38.12;102044.16;4980669;28;45343;-95
2022/08/06 17:11:08;;;;;;;;;1.00;0.00;;;;;28.19;38.54;102035.25;4964643;28;45487;-95
2022/08/06 17:13:33;;;;;;;;;0.67;0.67;;;;;28.10;38.42;102037.13;4961465;28;45619;-95
2022/08/06 17:15:59;;;;;;;;;1.00;1.00;;;;;27.99;38.78;102036.31;4945554;28;49038;-94
2022/08/06 17:18:24;;;;;;;;;1.67;1.00;;;;;27.92;38.73;102042.66;4979883;28;45729;-94
2022/08/06 17:20:50;;;;;;;;;1.00;1.00;;;;;27.81;39.02;102050.84;4963368;28;45474;-93
2022/08/06 17:23:16;;;;;;;;;0.00;0.00;;;;;27.74;38.99;102053.53;4961239;28;45429;-94
2022/08/06 17:25:42;;;;;;;;;1.00;1.00;;;;;27.65;38.94;102059.88;4969823;28;46525;-95
2022/08/06 17:28:08;;;;;;;;;2.67;2.67;;;;;27.59;39.11;102040.16;4976033;28;45432;-95
2022/08/06 17:30:34;;;;;;;;;4.33;2.67;;;;;27.48;39.20;102037.50;4977429;28;45326;-93
2022/08/06 17:32:59;;;;;;;;;1.00;1.00;;;;;27.44;39.53;102042.03;5004159;28;45281;-92
2022/08/06 17:35:24;;;;;;;;;1.00;1.00;;;;;27.38;39.25;102042.06;5009723;28;48313;-94
2022/08/06 17:37:50;;;;;;;;;2.00;1.00;;;;;27.33;39.69;102053.75;4990028;28;45636;-93
2022/08/06 17:40:21;;;;;;;;;2.00;1.00;;;;;27.31;39.61;102060.97;5006869;28;45485;-95
2022/08/06 17:42:47;;;;;;;;;1.00;1.00;;;;;27.21;40.13;102045.75;5007727;28;45447;-95
2022/08/06 17:45:12;;;;;;;;;1.00;1.00;;;;;27.18;39.87;102053.81;5006937;28;46089;-92
2022/08/06 17:47:37;;;;;;;;;0.67;0.67;;;;;27.08;39.94;102045.75;5005190;28;45343;-94
2022/08/06 17:50:03;;;;;;;;;0.00;0.00;;;;;27.04;40.41;102053.81;5000265;28;45417;-95
2022/08/06 17:52:29;;;;;;;;;1.00;0.33;;;;;26.98;40.46;102057.47;5000104;28;45335;-94
2022/08/06 17:54:55;;;;;;;;;0.67;0.67;;;;;26.89;40.37;102051.19;5001380;28;46464;-94
2022/08/06 17:57:21;;;;;;;;;1.67;0.67;;;;;26.88;40.43;102067.34;4998202;28;45408;-96
2022/08/06 17:59:46;;;;;;;;;0.33;0.00;;;;;26.83;40.69;102067.34;5000538;28;45372;-94
2022/08/06 18:02:12;;;;;;;;;0.00;0.00;;;;;26.77;40.61;102056.63;4974325;28;45482;-95
2022/08/06 18:04:37;;;;;;;;;0.00;0.00;;;;;26.71;41.01;102062.00;4999011;28;46069;-93
2022/08/06 18:07:04;;;;;;;;;2.00;1.00;;;;;26.67;40.68;102063.81;4983979;28;45301;-92
2022/08/06 18:09:29;;;;;;;;;2.00;1.00;;;;;26.59;40.66;102062.94;5002697;28;45507;-94
2022/08/06 18:11:54;;;;;;;;;1.00;1.00;;;;;26.54;40.94;102058.41;5004884;28;45330;-94
2022/08/06 18:14:20;;;;;;;;;1.00;1.00;;;;;26.51;40.58;102062.94;5007498;28;45386;-94
2022/08/06 18:16:45;;;;;;;;;0.00;0.00;;;;;26.44;40.59;102062.91;5005977;28;45317;-94
2022/08/06 18:19:10;;;;;;;;;1.00;1.00;;;;;26.41;41.18;102065.59;4999097;28;45305;-94
2022/08/06 18:21:36;;;;;;;;;2.33;1.00;;;;;26.34;41.05;102062.00;4982108;28;45334;-94
2022/08/06 18:24:02;;;;;;;;;1.00;1.00;;;;;26.30;41.44;102067.38;4982045;28;47378;-93
2022/08/06 18:26:28;;;;;;;;;1.33;1.33;;;;;26.25;41.42;102071.88;5000187;28;45306;-94